Time;durP1;ratioP1;P1;durP2;ratioP2;P2;SDS_P1;SDS_P2;PMS_P1;PMS_P2;Temp;Humidity;BMP_temperature;BMP_pressure;BME280_temperature;BME280_humidity;BME280_pressure;Samples;Min_cycle;Max_cycle;Signal;HPM_P1;HPM_P2
2021/04/27 00:00:26;;;;;;;;;;;3.70;99.50;;;;;;8299057;28;20519;-66
2021/04/27 00:04:26;;;;;;;;;;;4.00;99.20;;;;;;8298746;28;19992;-66
2021/04/27 00:08:27;;;;;;;;;;;4.20;98.00;;;;;;8299641;28;19913;-67
2021/04/27 00:12:27;;;;;;;;;;;4.00;99.70;;;;;;8280211;28;19906;-66
2021/04/27 00:16:28;;;;;;;;;;;4.00;99.90;;;;;;8266516;28;19913;-66
2021/04/27 00:20:28;;;;;;;;;;;4.10;99.10;;;;;;8266315;28;19961;-66
2021/04/27 00:24:31;;;;;;;;;;;4.00;99.80;;;;;;8265978;28;19916;-66
2021/04/27 00:28:31;;;;;;;;;;;3.90;99.90;;;;;;8297945;28;19909;-66
2021/04/27 00:32:32;;;;;;;;;;;3.80;99.90;;;;;;8295840;28;20011;-66
2021/04/27 00:36:32;;;;;;;;;;;3.60;99.90;;;;;;8298446;28;19995;-66
2021/04/27 00:40:33;;;;;;;;;;;3.60;99.90;;;;;;8280529;28;19905;-66
2021/04/27 00:44:34;;;;;;;;;;;3.50;99.90;;;;;;8297625;28;19913;-66
2021/04/27 00:48:34;;;;;;;;;;;3.40;99.90;;;;;;8296938;28;19944;-66
2021/04/27 00:52:35;;;;;;;;;;;3.50;99.90;;;;;;8297549;28;20008;-66
2021/04/27 00:56:36;;;;;;;;;;;3.30;99.90;;;;;;8281065;28;19960;-66
2021/04/27 01:00:38;;;;;;;;;;;3.30;99.90;;;;;;8264947;28;19959;-67
2021/04/27 01:04:38;;;;;;;;;;;3.30;99.90;;;;;;8264233;28;19914;-66
2021/04/27 01:08:54;;;;;;;;;;;3.10;99.90;;;;;;8264708;28;19914;-66
2021/04/27 01:12:59;;;;;;;;;;;2.90;99.90;;;;;;8246697;28;19921;-66
2021/04/27 01:17:02;;;;;;;;;;;2.80;99.90;;;;;;8264676;28;19912;-66
2021/04/27 01:21:03;;;;;;;;;;;2.70;99.90;;;;;;8264400;28;19928;-66
2021/04/27 01:25:04;;;;;;;;;;;2.60;99.90;;;;;;8268402;28;20257;-66
2021/04/27 01:29:06;;;;;;;;;;;2.70;99.90;;;;;;8279031;28;20380;-67
2021/04/27 01:33:25;;;;;;;;;;;2.60;99.90;;;;;;8296338;28;19940;-66
2021/04/27 01:37:26;;;;;;;;;;;2.50;99.90;;;;;;8296156;28;19941;-66
2021/04/27 01:41:26;;;;;;;;;;;2.50;99.90;;;;;;8295857;28;19912;-66
2021/04/27 01:45:27;;;;;;;;;;;2.60;99.90;;;;;;8295591;28;19916;-66
2021/04/27 01:49:28;;;;;;;;;;;2.50;99.90;;;;;;8296200;28;19906;-66
2021/04/27 01:53:29;;;;;;;;;;;2.50;99.90;;;;;;8295513;28;19912;-67
2021/04/27 01:57:30;;;;;;;;;;;2.50;99.90;;;;;;8308185;28;19913;-66
2021/04/27 02:01:30;;;;;;;;;;;2.60;99.90;;;;;;8328670;28;19905;-66
2021/04/27 02:05:31;;;;;;;;;;;2.50;99.90;;;;;;8327866;28;19964;-66
2021/04/27 02:09:33;;;;;;;;;;;2.50;99.90;;;;;;8327795;28;20004;-66
2021/04/27 02:13:33;;;;;;;;;;;2.40;99.90;;;;;;8327687;28;19912;-66
2021/04/27 02:17:44;;;;;;;;;;;2.40;99.90;;;;;;8310241;28;19905;-66
2021/04/27 02:21:45;;;;;;;;;;;2.30;99.90;;;;;;8327707;28;20017;-66
2021/04/27 02:25:47;;;;;;;;;;;2.30;99.90;;;;;;8289280;28;19909;-66
2021/04/27 02:29:47;;;;;;;;;;;2.30;99.90;;;;;;8261676;28;19909;-66
2021/04/27 02:33:48;;;;;;;;;;;2.30;99.90;;;;;;8261216;28;19905;-66
2021/04/27 02:37:49;;;;;;;;;;;2.20;99.90;;;;;;8261896;28;19905;-66
2021/04/27 02:41:50;;;;;;;;;;;2.30;99.90;;;;;;8261422;28;19960;-66
2021/04/27 02:45:51;;;;;;;;;;;2.40;99.90;;;;;;8261382;28;19964;-66
2021/04/27 02:49:51;;;;;;;;;;;2.20;99.90;;;;;;8261516;28;19910;-66
2021/04/27 02:53:52;;;;;;;;;;;2.00;99.90;;;;;;8261158;28;19905;-66
2021/04/27 02:57:53;;;;;;;;;;;2.10;99.90;;;;;;8261694;28;19960;-66
2021/04/27 03:01:53;;;;;;;;;;;2.60;99.90;;;;;;8261455;28;19988;-66
2021/04/27 03:05:53;;;;;;;;;;;2.40;99.90;;;;;;8260777;28;19921;-66
2021/04/27 03:09:54;;;;;;;;;;;2.20;99.90;;;;;;8261096;28;20391;-66
2021/04/27 03:13:56;;;;;;;;;;;2.10;99.90;;;;;;8243877;28;20463;-66
2021/04/27 03:17:56;;;;;;;;;;;1.80;99.90;;;;;;8261022;28;19913;-66
2021/04/27 03:21:56;;;;;;;;;;;1.70;99.90;;;;;;8243579;28;19937;-66
2021/04/27 03:25:57;;;;;;;;;;;1.60;99.90;;;;;;8261154;28;20376;-66
2021/04/27 03:29:58;;;;;;;;;;;1.50;99.90;;;;;;8243375;28;20269;-66
2021/04/27 03:33:59;;;;;;;;;;;1.30;99.90;;;;;;8260970;28;19949;-66
2021/04/27 03:37:59;;;;;;;;;;;1.30;99.90;;;;;;8270746;28;20280;-66
2021/04/27 03:42:00;;;;;;;;;;;1.20;99.90;;;;;;8276134;28;19988;-66
2021/04/27 03:46:00;;;;;;;;;;;1.40;99.90;;;;;;8265383;28;19913;-66
2021/04/27 03:50:02;;;;;;;;;;;1.30;99.90;;;;;;8261794;28;19910;-66
2021/04/27 03:54:02;;;;;;;;;;;1.40;99.90;;;;;;8260546;28;19905;-67
2021/04/27 03:58:04;;;;;;;;;;;1.30;99.90;;;;;;8261400;28;19906;-66
2021/04/27 04:02:04;;;;;;;;;;;1.20;99.90;;;;;;8246396;28;20372;-66
2021/04/27 04:06:05;;;;;;;;;;;1.50;99.90;;;;;;8285426;28;19972;-66
2021/04/27 04:10:06;;;;;;;;;;;1.40;99.90;;;;;;8297668;28;19923;-66
2021/04/27 04:14:07;;;;;;;;;;;1.40;99.90;;;;;;8298798;28;19905;-66
2021/04/27 04:18:07;;;;;;;;;;;1.30;99.90;;;;;;8298723;28;19910;-66
2021/04/27 04:22:08;;;;;;;;;;;1.10;99.90;;;;;;8297883;28;20252;-66
2021/04/27 04:26:08;;;;;;;;;;;1.20;99.90;;;;;;8284854;28;19916;-66
2021/04/27 04:30:19;;;;;;;;;;;1.50;99.90;;;;;;8248146;28;19905;-65
2021/04/27 04:34:19;;;;;;;;;;;4.20;99.90;;;;;;8248209;28;19906;-66
2021/04/27 04:38:20;;;;;;;;;;;5.50;99.90;;;;;;8265394;28;19906;-65
2021/04/27 04:42:20;;;;;;;;;;;5.30;99.90;;;;;;8247701;28;20004;-65
2021/04/27 04:46:21;;;;;;;;;;;5.80;99.90;;;;;;8247990;28;19910;-66
2021/04/27 04:50:22;;;;;;;;;;;5.50;99.90;;;;;;8264964;28;19905;-66
2021/04/27 04:54:22;;;;;;;;;;;4.70;99.90;;;;;;8264738;28;19912;-66
2021/04/27 04:58:23;;;;;;;;;;;4.20;99.90;;;;;;8270665;28;19948;-66
2021/04/27 05:02:23;;;;;;;;;;;3.90;99.90;;;;;;8293332;28;19909;-66
2021/04/27 05:06:25;;;;;;;;;;;3.90;99.90;;;;;;8295086;28;19963;-66
2021/04/27 05:10:25;;;;;;;;;;;3.80;99.90;;;;;;8296245;28;20364;-67
2021/04/27 05:14:26;;;;;;;;;;;4.10;99.90;;;;;;8294874;28;19906;-65
2021/04/27 05:18:26;;;;;;;;;;;4.20;99.90;;;;;;8296136;28;19980;-66
2021/04/27 05:22:27;;;;;;;;;;;4.40;99.90;;;;;;8295247;28;19905;-66
2021/04/27 05:26:28;;;;;;;;;;;4.50;99.90;;;;;;8280598;28;19979;-66
2021/04/27 05:30:28;;;;;;;;;;;4.70;99.90;;;;;;8248569;28;19925;-66
2021/04/27 05:34:29;;;;;;;;;;;5.10;99.90;;;;;;8295398;28;19905;-65
2021/04/27 05:38:29;;;;;;;;;;;5.40;99.90;;;;;;8278780;28;19964;-65
2021/04/27 05:42:30;;;;;;;;;;;5.50;99.90;;;;;;8286872;28;19910;-65
2021/04/27 05:46:30;;;;;;;;;;;5.80;99.90;;;;;;8295739;28;19918;-66
2021/04/27 05:50:31;;;;;;;;;;;6.00;99.90;;;;;;8287322;28;20457;-64
2021/04/27 05:54:32;;;;;;;;;;;6.20;99.90;;;;;;8278876;28;19905;-64
2021/04/27 05:58:32;;;;;;;;;;;6.40;99.90;;;;;;8269903;28;19916;-64
2021/04/27 06:02:33;;;;;;;;;;;6.60;99.90;;;;;;8278984;28;19906;-64
2021/04/27 06:06:37;;;;;;;;;;;6.90;99.90;;;;;;8270082;28;19914;-65
2021/04/27 06:10:37;;;;;;;;;;;7.10;99.90;;;;;;8266437;28;20676;-65
2021/04/27 06:14:38;;;;;;;;;;;7.30;99.90;;;;;;8275124;28;19916;-65
2021/04/27 06:18:38;;;;;;;;;;;7.50;99.90;;;;;;8275696;28;19913;-64
2021/04/27 06:22:39;;;;;;;;;;;7.70;99.90;;;;;;8256413;28;20004;-65
2021/04/27 06:26:40;;;;;;;;;;;7.90;99.90;;;;;;8275312;28;19914;-65
2021/04/27 06:30:41;;;;;;;;;;;8.20;99.90;;;;;;8273154;28;20017;-64
2021/04/27 06:34:41;;;;;;;;;;;8.40;99.90;;;;;;8274125;28;19910;-64
2021/04/27 06:38:42;;;;;;;;;;;8.20;99.90;;;;;;8288088;28;20426;-65
2021/04/27 06:42:43;;;;;;;;;;;8.40;99.90;;;;;;8290398;28;20368;-65
2021/04/27 06:46:43;;;;;;;;;;;8.60;99.90;;;;;;8291353;28;19961;-65
2021/04/27 06:50:44;;;;;;;;;;;8.60;99.90;;;;;;8271575;28;19906;-64
2021/04/27 06:54:45;;;;;;;;;;;8.70;99.90;;;;;;8278523;28;19920;-65
2021/04/27 06:58:45;;;;;;;;;;;8.80;99.90;;;;;;8261305;28;19910;-65
2021/04/27 07:02:46;;;;;;;;;;;9.10;99.90;;;;;;8248980;28;19917;-65
2021/04/27 07:06:46;;;;;;;;;;;9.30;99.90;;;;;;8260782;28;19917;-65
2021/04/27 07:10:47;;;;;;;;;;;9.50;99.90;;;;;;8250537;28;19914;-65
2021/04/27 07:14:48;;;;;;;;;;;9.70;99.90;;;;;;8275362;28;19960;-65
2021/04/27 07:18:48;;;;;;;;;;;9.90;99.90;;;;;;8293951;28;19996;-65
2021/04/27 07:22:49;;;;;;;;;;;10.30;99.00;;;;;;8292895;28;19912;-65
2021/04/27 07:26:49;;;;;;;;;;;10.20;96.30;;;;;;8269757;28;19968;-65
2021/04/27 07:30:51;;;;;;;;;;;9.80;99.90;;;;;;8292178;28;19916;-65
2021/04/27 07:34:52;;;;;;;;;;;10.10;99.90;;;;;;8278149;28;19909;-65
2021/04/27 07:38:52;;;;;;;;;;;10.30;99.90;;;;;;8283866;28;19910;-64
2021/04/27 07:42:53;;;;;;;;;;;10.80;97.00;;;;;;8268256;28;19914;-64
2021/04/27 07:46:54;;;;;;;;;;;10.60;99.40;;;;;;8293367;28;20007;-65
2021/04/27 07:50:54;;;;;;;;;;;10.90;95.50;;;;;;8268701;28;20281;-64
2021/04/27 07:54:54;;;;;;;;;;;10.80;97.10;;;;;;8272422;28;19913;-64
2021/04/27 07:58:57;;;;;;;;;;;10.90;95.70;;;;;;8280613;28;19913;-65
2021/04/27 08:02:57;;;;;;;;;;;11.20;96.40;;;;;;8280825;28;20566;-65
2021/04/27 08:06:58;;;;;;;;;;;11.60;98.30;;;;;;8265303;28;19909;-64
2021/04/27 08:10:58;;;;;;;;;;;11.90;96.60;;;;;;8279445;28;19921;-64
2021/04/27 08:14:59;;;;;;;;;;;12.10;93.70;;;;;;8281664;28;19910;-64
2021/04/27 08:18:59;;;;;;;;;;;12.40;95.30;;;;;;8265435;28;19910;-65
2021/04/27 08:23:00;;;;;;;;;;;12.70;96.30;;;;;;8264872;28;19964;-66
2021/04/27 08:27:01;;;;;;;;;;;13.10;92.50;;;;;;8266648;28;19906;-66
2021/04/27 08:31:01;;;;;;;;;;;13.50;94.40;;;;;;8268960;28;19910;-66
2021/04/27 08:35:03;;;;;;;;;;;13.50;91.60;;;;;;8273286;28;19929;-67
2021/04/27 08:39:03;;;;;;;;;;;13.50;90.20;;;;;;8288293;28;19921;-64
2021/04/27 08:43:04;;;;;;;;;;;13.60;92.00;;;;;;8270074;28;20059;-64
2021/04/27 08:47:06;;;;;;;;;;;13.70;91.40;;;;;;8267970;28;20420;-65
2021/04/27 08:51:06;;;;;;;;;;;13.70;89.90;;;;;;8267262;28;20388;-64
2021/04/27 08:55:07;;;;;;;;;;;13.80;90.60;;;;;;8267355;28;19920;-64
2021/04/27 08:59:08;;;;;;;;;;;14.00;91.20;;;;;;8277152;28;19920;-64
2021/04/27 09:03:09;;;;;;;;;;;14.00;85.40;;;;;;8295961;28;20087;-64
2021/04/27 09:07:09;;;;;;;;;;;14.00;84.50;;;;;;8270725;28;19937;-65
2021/04/27 09:11:30;;;;;;;;;;;14.20;86.80;;;;;;8278298;28;19936;-65
2021/04/27 09:15:35;;;;;;;;;;;14.40;88.40;;;;;;8278648;28;19913;-64
2021/04/27 09:19:48;;;;;;;;;;;14.40;81.30;;;;;;8273315;28;19920;-64
2021/04/27 09:23:49;;;;;;;;;;;14.50;89.40;;;;;;8262627;28;19967;-65
2021/04/27 09:27:49;;;;;;;;;;;14.80;87.40;;;;;;8282737;28;20423;-66
2021/04/27 09:31:50;;;;;;;;;;;15.10;87.50;;;;;;8266190;28;19931;-65
2021/04/27 09:35:50;;;;;;;;;;;15.30;82.20;;;;;;8278165;28;19905;-65
2021/04/27 09:39:51;;;;;;;;;;;15.50;82.40;;;;;;8279589;28;19917;-64
2021/04/27 09:43:53;;;;;;;;;;;14.90;75.50;;;;;;8266833;28;19974;-65
2021/04/27 09:47:53;;;;;;;;;;;14.90;81.50;;;;;;8276968;28;19917;-65
2021/04/27 09:51:54;;;;;;;;;;;15.20;79.20;;;;;;8263256;28;20009;-65
2021/04/27 09:55:54;;;;;;;;;;;15.20;77.30;;;;;;8263461;28;19906;-65
2021/04/27 09:59:55;;;;;;;;;;;15.00;72.80;;;;;;8245345;28;19932;-65
2021/04/27 10:03:55;;;;;;;;;;;15.10;76.60;;;;;;8262910;28;19988;-65
2021/04/27 10:07:58;;;;;;;;;;;14.90;76.40;;;;;;8265412;28;19992;-65
2021/04/27 10:12:00;;;;;;;;;;;15.10;79.00;;;;;;8266619;28;19906;-65
2021/04/27 10:16:00;;;;;;;;;;;15.70;81.00;;;;;;8261773;28;19905;-66
2021/04/27 10:20:03;;;;;;;;;;;16.20;75.90;;;;;;8277038;28;19910;-65
2021/04/27 10:24:14;;;;;;;;;;;16.00;73.10;;;;;;8263017;28;20040;-65
2021/04/27 10:28:14;;;;;;;;;;;16.40;69.00;;;;;;8280327;28;19960;-66
2021/04/27 10:32:25;;;;;;;;;;;16.40;77.10;;;;;;8291987;28;19916;-66
2021/04/27 10:36:28;;;;;;;;;;;16.60;75.90;;;;;;8266822;28;20055;-66
2021/04/27 10:40:41;;;;;;;;;;;17.30;73.40;;;;;;8281521;28;19909;-66
2021/04/27 10:44:52;;;;;;;;;;;17.60;66.30;;;;;;8264567;28;19913;-65
2021/04/27 10:49:05;;;;;;;;;;;17.00;68.80;;;;;;8284327;28;19956;-66
2021/04/27 10:53:32;;;;;;;;;;;17.60;71.30;;;;;;8271891;28;20008;-66
2021/04/27 10:57:43;;;;;;;;;;;18.20;70.50;;;;;;8258062;28;20008;-66
2021/04/27 11:01:45;;;;;;;;;;;18.50;65.50;;;;;;8271316;28;19937;-66
2021/04/27 11:05:53;;;;;;;;;;;19.20;66.30;;;;;;8260411;28;19940;-66
2021/04/27 11:10:06;;;;;;;;;;;20.10;58.20;;;;;;8243622;28;20129;-66
2021/04/27 11:14:20;;;;;;;;;;;22.90;52.80;;;;;;8243505;28;19925;-66
2021/04/27 11:18:22;;;;;;;;;;;26.10;47.90;;;;;;8276663;28;20312;-66
2021/04/27 11:22:30;;;;;;;;;;;27.30;40.70;;;;;;8276711;28;20369;-66
2021/04/27 11:26:33;;;;;;;;;;;28.70;40.10;;;;;;8265137;28;19914;-66
2021/04/27 11:30:34;;;;;;;;;;;29.70;35.10;;;;;;8266928;28;20367;-67
2021/04/27 11:34:54;;;;;;;;;;;30.80;35.10;;;;;;8272472;28;20008;-65
2021/04/27 11:38:54;;;;;;;;;;;26.40;37.50;;;;;;8272047;28;19910;-66
2021/04/27 11:42:55;;;;;;;;;;;25.40;38.20;;;;;;8257880;28;20355;-66
2021/04/27 11:46:56;;;;;;;;;;;28.30;37.60;;;;;;8262648;28;19913;-66
2021/04/27 11:50:57;;;;;;;;;;;30.20;32.30;;;;;;8261385;28;20015;-66
2021/04/27 11:54:57;;;;;;;;;;;28.80;34.80;;;;;;8281617;28;19916;-66
2021/04/27 11:59:05;;;;;;;;;;;30.50;36.00;;;;;;8269407;28;19917;-66
2021/04/27 12:03:13;;;;;;;;;;;31.50;30.90;;;;;;8274264;28;20437;-67
2021/04/27 12:07:14;;;;;;;;;;;30.60;33.10;;;;;;8266978;28;20355;-66
2021/04/27 12:11:30;;;;;;;;;;;32.00;29.30;;;;;;8283774;28;19920;-67
2021/04/27 12:15:31;;;;;;;;;;;31.40;32.80;;;;;;8272534;28;19905;-67
2021/04/27 12:19:32;;;;;;;;;;;29.70;33.60;;;;;;8292617;28;19928;-66
2021/04/27 12:23:32;;;;;;;;;;;29.90;32.80;;;;;;8268751;28;19917;-67
2021/04/27 12:27:32;;;;;;;;;;;31.80;32.10;;;;;;8264242;28;19906;-67
2021/04/27 12:31:34;;;;;;;;;;;33.50;29.00;;;;;;8269306;28;19909;-67
2021/04/27 12:35:35;;;;;;;;;;;34.80;28.80;;;;;;8285549;28;20400;-67
2021/04/27 12:39:36;;;;;;;;;;;35.90;28.50;;;;;;8291910;28;19920;-68
2021/04/27 12:43:38;;;;;;;;;;;36.20;27.00;;;;;;8297589;28;19913;-69
2021/04/27 12:47:39;;;;;;;;;;;35.80;27.90;;;;;;8271346;28;20368;-70
2021/04/27 12:51:40;;;;;;;;;;;36.90;27.40;;;;;;8279834;28;19916;-68
2021/04/27 12:55:47;;;;;;;;;;;38.50;24.70;;;;;;8281375;28;20354;-68
2021/04/27 12:59:52;;;;;;;;;;;37.00;25.50;;;;;;8277157;28;20041;-68
2021/04/27 13:03:57;;;;;;;;;;;37.10;26.20;;;;;;8264189;28;19921;-68
2021/04/27 13:08:04;;;;;;;;;;;38.30;25.40;;;;;;8274250;28;19916;-68
2021/04/27 13:12:06;;;;;;;;;;;35.60;25.10;;;;;;8281832;28;19948;-67
2021/04/27 13:16:06;;;;;;;;;;;35.20;27.20;;;;;;8246985;28;19913;-69
2021/04/27 13:20:09;;;;;;;;;;;37.50;26.50;;;;;;8271806;28;19932;-68
2021/04/27 13:24:11;;;;;;;;;;;38.40;24.70;;;;;;8266785;28;19917;-67
2021/04/27 13:28:16;;;;;;;;;;;39.30;24.60;;;;;;8268868;28;19910;-68
2021/04/27 13:32:21;;;;;;;;;;;38.80;23.50;;;;;;8246809;28;19906;-66
2021/04/27 13:36:21;;;;;;;;;;;39.30;24.00;;;;;;8279784;28;20364;-67
2021/04/27 13:40:22;;;;;;;;;;;40.20;23.40;;;;;;8287589;28;19912;-67
2021/04/27 13:44:23;;;;;;;;;;;40.30;23.70;;;;;;8289971;28;19913;-69
2021/04/27 13:48:24;;;;;;;;;;;40.30;23.90;;;;;;8292097;28;19906;-70
2021/04/27 13:52:25;;;;;;;;;;;41.50;23.00;;;;;;8265665;28;20246;-69
2021/04/27 13:56:25;;;;;;;;;;;41.70;23.00;;;;;;8279868;28;19909;-69
2021/04/27 14:00:26;;;;;;;;;;;40.90;22.30;;;;;;8262064;28;19948;-69
2021/04/27 14:04:26;;;;;;;;;;;36.80;24.10;;;;;;8264871;28;19917;-70
2021/04/27 14:08:27;;;;;;;;;;;35.30;26.70;;;;;;8281366;28;20717;-69
2021/04/27 14:12:27;;;;;;;;;;;36.40;25.50;;;;;;8294460;28;20463;-69
2021/04/27 14:16:28;;;;;;;;;;;35.40;36.10;;;;;;8294044;28;20298;-70
2021/04/27 14:20:29;;;;;;;;;;;37.40;24.90;;;;;;8281019;28;20024;-68
2021/04/27 14:24:29;;;;;;;;;;;37.70;23.60;;;;;;8285181;28;20287;-69
2021/04/27 14:28:30;;;;;;;;;;;36.10;25.20;;;;;;8276270;28;19917;-69
2021/04/27 14:32:30;;;;;;;;;;;37.60;25.30;;;;;;8270546;28;20128;-70
2021/04/27 14:36:30;;;;;;;;;;;38.70;24.50;;;;;;8292753;28;19956;-71
2021/04/27 14:40:31;;;;;;;;;;;40.10;23.40;;;;;;8292872;28;19909;-70
2021/04/27 14:44:33;;;;;;;;;;;40.00;23.50;;;;;;8287953;28;19918;-70
2021/04/27 14:48:34;;;;;;;86.95;24.92;;;40.10;23.60;;;;;;8273323;28;20545;-70
2021/04/27 14:52:34;;;;;;;;;;;40.10;22.60;;;;;;8272006;28;20046;-69
2021/04/27 14:56:35;;;;;;;;;;;37.60;24.10;;;;;;8264612;28;19917;-70
2021/04/27 15:00:35;;;;;;;;;;;37.50;24.40;;;;;;8281528;28;19932;-70
2021/04/27 15:04:36;;;;;;;;;;;37.00;24.50;;;;;;8274625;28;19941;-71
2021/04/27 15:08:37;;;;;;;84.67;24.80;;;36.10;25.50;;;;;;8274850;28;20427;-69
2021/04/27 15:12:37;;;;;;;;;;;35.90;25.50;;;;;;8267386;28;20033;-69
2021/04/27 15:16:38;;;;;;;;;;;35.30;25.20;;;;;;8285404;28;19916;-69
2021/04/27 15:20:39;;;;;;;;;;;35.40;25.50;;;;;;8273802;28;19968;-71
2021/04/27 15:24:39;;;;;;;87.23;25.40;;;35.60;26.20;;;;;;8260092;28;20437;-69
2021/04/27 15:28:41;;;;;;;;;;;36.30;24.60;;;;;;8267878;28;20049;-69
2021/04/27 15:32:43;;;;;;;;;;;35.00;25.80;;;;;;8267877;28;20000;-69
2021/04/27 15:36:43;;;;;;;;;;;35.00;25.90;;;;;;8269556;28;19960;-69
2021/04/27 15:40:44;;;;;;;;;;;35.60;26.10;;;;;;8270703;28;19910;-70
2021/04/27 15:44:45;;;;;;;89.40;26.45;;;36.70;25.60;;;;;;8272971;28;20819;-69
2021/04/27 15:48:46;;;;;;;;;;;37.30;23.40;;;;;;8283027;28;20479;-69
2021/04/27 15:52:46;;;;;;;;;;;37.30;24.90;;;;;;8282198;28;19914;-69
2021/04/27 15:56:47;;;;;;;;;;;35.30;24.10;;;;;;8271228;28;19914;-70
2021/04/27 16:00:48;;;;;;;;;;;35.20;26.10;;;;;;8260129;28;19906;-69
2021/04/27 16:04:51;;;;;;;;;;;35.90;25.20;;;;;;8291878;28;19917;-68
2021/04/27 16:08:54;;;;;;;;;;;35.50;25.10;;;;;;8294324;28;20511;-68
2021/04/27 16:12:56;;;;;;;;;;;36.70;25.30;;;;;;8268640;28;20004;-69
2021/04/27 16:16:57;;;;;;;;;;;36.80;24.90;;;;;;8298331;28;20432;-69
2021/04/27 16:20:58;;;;;;;;;;;37.50;24.70;;;;;;8298307;28;19928;-69
2021/04/27 16:24:58;;;;;;;;;;;37.70;25.20;;;;;;8294244;28;19964;-68
2021/04/27 16:28:59;;;;;;;;;;;37.50;24.90;;;;;;8289076;28;19955;-68
2021/04/27 16:32:59;;;;;;;;;;;36.70;24.50;;;;;;8280448;28;19906;-69
2021/04/27 16:37:00;;;;;;;;;;;36.30;26.20;;;;;;8276328;28;19960;-68
2021/04/27 16:41:00;;;;;;;;;;;35.80;25.50;;;;;;8265590;28;19906;-68
2021/04/27 16:45:01;;;;;;;;;;;35.40;25.80;;;;;;8265134;28;20050;-68
2021/04/27 16:49:02;;;;;;;;;;;32.30;28.70;;;;;;8267609;28;19956;-68
2021/04/27 16:53:02;;;;;;;;;;;32.40;27.80;;;;;;8265149;28;19909;-68
2021/04/27 16:57:03;;;;;;;;;;;32.50;29.00;;;;;;8279495;28;19909;-68
2021/04/27 17:01:04;;;;;;;;;;;32.90;28.20;;;;;;8293879;28;20300;-68
2021/04/27 17:05:05;;;;;;;;;;;33.00;28.60;;;;;;8265653;28;19918;-68
2021/04/27 17:09:05;;;;;;;;;;;33.00;28.40;;;;;;8277733;28;19913;-68
2021/04/27 17:13:08;;;;;;;;;;;32.60;28.20;;;;;;8276567;28;19914;-68
2021/04/27 17:17:09;;;;;;;;;;;31.90;29.20;;;;;;8265622;28;19912;-68
2021/04/27 17:21:10;;;;;;;;;;;30.90;30.40;;;;;;8264278;28;20004;-68
2021/04/27 17:25:10;;;;;;;;;;;29.20;33.60;;;;;;8279765;28;19917;-66
2021/04/27 17:29:11;;;;;;;;;;;27.00;35.00;;;;;;8273549;28;19912;-66
2021/04/27 17:33:12;;;;;;;;;;;24.70;37.50;;;;;;8264493;28;19957;-66
2021/04/27 17:37:12;;;;;;;;;;;23.00;41.40;;;;;;8264098;28;20004;-66
2021/04/27 17:41:12;;;;;;;;;;;21.40;43.40;;;;;;8263706;28;20407;-66
2021/04/27 17:45:13;;;;;;;;;;;20.40;45.60;;;;;;8263880;28;19909;-65
2021/04/27 17:49:17;;;;;;;;;;;19.50;47.40;;;;;;8256310;28;19943;-66
2021/04/27 17:53:17;;;;;;;;;;;18.50;50.60;;;;;;8270482;28;20299;-66
2021/04/27 17:57:18;;;;;;;;;;;17.80;52.00;;;;;;8279382;28;20894;-65
2021/04/27 18:01:19;;;;;;;;;;;17.30;53.00;;;;;;8266277;28;19970;-65
2021/04/27 18:05:20;;;;;;;;;;;16.70;54.30;;;;;;8279331;28;19918;-65
2021/04/27 18:09:20;;;;;;;;;;;16.30;55.20;;;;;;8262078;28;20528;-65
2021/04/27 18:13:21;;;;;;;;;;;15.90;56.70;;;;;;8262026;28;19909;-66
2021/04/27 18:17:21;;;;;;;;;;;15.60;57.50;;;;;;8271947;28;19913;-67
2021/04/27 18:21:22;;;;;;;;;;;15.20;59.00;;;;;;8273672;28;19913;-66
2021/04/27 18:25:23;;;;;;;;;;;14.80;59.60;;;;;;8274194;28;20572;-67
2021/04/27 18:29:24;;;;;;;;;;;14.50;61.10;;;;;;8268775;28;20012;-67
2021/04/27 18:33:25;;;;;;;;;;;14.30;61.90;;;;;;8260465;28;20644;-68
2021/04/27 18:37:25;;;;;;;;;;;14.20;61.60;;;;;;8271540;28;19917;-67
2021/04/27 18:41:26;;;;;;;;;;;13.90;62.90;;;;;;8270634;28;20598;-67
2021/04/27 18:45:27;;;;;;;;;;;13.70;63.70;;;;;;8274161;28;19917;-67
2021/04/27 18:49:27;;;;;;;;;;;13.30;65.50;;;;;;8271504;28;20333;-66
2021/04/27 18:53:29;;;;;;;;;;;12.80;67.60;;;;;;8271674;28;19982;-66
2021/04/27 18:57:29;;;;;;;;;;;12.40;69.00;;;;;;8255571;28;19917;-67
2021/04/27 19:01:30;;;;;;;;;;;11.80;72.40;;;;;;8270725;28;20499;-67
2021/04/27 19:05:31;;;;;;;;;;;11.70;73.40;;;;;;8267694;28;19925;-67
2021/04/27 19:09:32;;;;;;;;;;;11.80;73.90;;;;;;8265131;28;20292;-67
2021/04/27 19:13:32;;;;;;;;;;;11.80;74.10;;;;;;8269809;28;19963;-66
2021/04/27 19:17:33;;;;;;;;;;;11.60;74.90;;;;;;8267345;28;19913;-66
2021/04/27 19:21:35;;;;;;;;;;;11.50;76.20;;;;;;8280500;28;19909;-66
2021/04/27 19:25:35;;;;;;;;;;;11.60;75.50;;;;;;8287224;28;19919;-66
2021/04/27 19:29:35;;;;;;;;;;;11.80;73.40;;;;;;8283560;28;20331;-66
2021/04/27 19:33:37;;;;;;;;;;;11.80;72.10;;;;;;8286103;28;19913;-66
2021/04/27 19:37:38;;;;;;;;;;;11.40;73.80;;;;;;8268988;28;20407;-66
2021/04/27 19:41:38;;;;;;;;;;;11.30;74.40;;;;;;8267069;28;19910;-66
2021/04/27 19:45:39;;;;;;;;;;;11.20;75.00;;;;;;8274446;28;20374;-67
2021/04/27 19:49:40;;;;;;;;;;;11.00;75.00;;;;;;8278113;28;19917;-67
2021/04/27 19:53:41;;;;;;;;;;;10.90;75.70;;;;;;8279142;28;20005;-66
2021/04/27 19:57:43;;;;;;;;;;;10.70;77.70;;;;;;8282739;28;20677;-66
2021/04/27 20:01:43;;;;;;;;;;;10.60;77.90;;;;;;8278153;28;20266;-67
2021/04/27 20:05:44;;;;;;;;;;;10.50;80.20;;;;;;8284316;28;19918;-67
2021/04/27 20:09:44;;;;;;;;;;;10.30;81.50;;;;;;8287986;28;19917;-66
2021/04/27 20:13:45;;;;;;;;;;;10.30;82.60;;;;;;8261423;28;19905;-66
2021/04/27 20:17:45;;;;;;;;;;;10.40;81.50;;;;;;8287619;28;19909;-66
2021/04/27 20:21:46;;;;;;;;;;;10.30;82.80;;;;;;8261250;28;19959;-66
2021/04/27 20:25:46;;;;;;;;;;;10.30;83.00;;;;;;8279935;28;19923;-67
2021/04/27 20:29:47;;;;;;;;;;;10.20;85.10;;;;;;8255031;28;19909;-66
2021/04/27 20:33:47;;;;;;;;;;;9.90;88.40;;;;;;8264282;28;19910;-67
2021/04/27 20:37:48;;;;;;;;;;;9.50;90.90;;;;;;8265489;28;19956;-66
2021/04/27 20:41:49;;;;;;;;;;;9.50;91.70;;;;;;8265069;28;19913;-67
2021/04/27 20:45:49;;;;;;;;;;;9.50;93.00;;;;;;8284127;28;19913;-66
2021/04/27 20:49:50;;;;;;;;;;;9.30;94.40;;;;;;8274555;28;19910;-67
2021/04/27 20:53:50;;;;;;;;;;;8.90;97.60;;;;;;8288201;28;19968;-67
2021/04/27 20:57:51;;;;;;;;;;;8.80;99.00;;;;;;8270181;28;19917;-66
2021/04/27 21:01:52;;;;;;;;;;;8.70;99.50;;;;;;8264867;28;19925;-67
2021/04/27 21:05:52;;;;;;;;;;;8.50;99.90;;;;;;8264819;28;19918;-66
2021/04/27 21:09:53;;;;;;;;;;;8.40;99.90;;;;;;8264716;28;20423;-67
2021/04/27 21:13:54;;;;;;;;;;;8.10;99.90;;;;;;8264548;28;19997;-66
2021/04/27 21:17:56;;;;;;;;;;;8.10;99.90;;;;;;8264821;28;19913;-67
2021/04/27 21:21:57;;;;;;;;;;;8.00;99.90;;;;;;8264589;28;19914;-67
2021/04/27 21:25:57;;;;;;;;;;;7.90;99.90;;;;;;8263810;28;19913;-67
2021/04/27 21:29:58;;;;;;;;;;;7.70;99.90;;;;;;8246809;28;19913;-67
2021/04/27 21:33:58;;;;;;;;;;;7.60;99.90;;;;;;8264415;28;20328;-67
2021/04/27 21:37:59;;;;;;;;;;;7.60;99.90;;;;;;8246486;28;20378;-66
2021/04/27 21:41:59;;;;;;;;;;;7.40;99.90;;;;;;8245964;28;19913;-66
2021/04/27 21:46:00;;;;;;;;;;;7.60;99.90;;;;;;8263663;28;19910;-67
2021/04/27 21:50:01;;;;;;;;;;;7.50;99.90;;;;;;8264093;28;20336;-66
2021/04/27 21:54:01;;;;;;;;;;;7.40;99.90;;;;;;8263448;28;19988;-66
2021/04/27 21:58:02;;;;;;;;;;;7.30;99.90;;;;;;8263868;28;19905;-66
2021/04/27 22:02:02;;;;;;;;;;;7.20;99.90;;;;;;8263015;28;19929;-67
2021/04/27 22:06:03;;;;;;;;;;;6.80;99.90;;;;;;8245686;28;19917;-67
2021/04/27 22:10:04;;;;;;;;;;;6.70;99.90;;;;;;8262813;28;19961;-66
2021/04/27 22:14:04;;;;;;;;;;;6.50;99.90;;;;;;8262638;28;19906;-67
2021/04/27 22:18:06;;;;;;;;;;;6.50;99.90;;;;;;8262484;28;20376;-66
2021/04/27 22:22:06;;;;;;;;;;;6.50;99.90;;;;;;8262225;28;20398;-66
2021/04/27 22:26:06;;;;;;;;;;;6.40;99.90;;;;;;8245501;28;19914;-66
2021/04/27 22:30:08;;;;;;;;;;;6.50;99.90;;;;;;8244751;28;20372;-66
2021/04/27 22:34:08;;;;;;;;;;;6.60;99.90;;;;;;8245006;28;19996;-66
2021/04/27 22:38:09;;;;;;;;;;;6.70;99.90;;;;;;8261769;28;20284;-66
2021/04/27 22:42:09;;;;;;;;;;;6.40;99.90;;;;;;8261480;28;20364;-66
2021/04/27 22:46:10;;;;;;;;;;;6.30;99.90;;;;;;8261988;28;19964;-67
2021/04/27 22:50:13;;;;;;;;;;;6.30;99.90;;;;;;8261726;28;19931;-66
2021/04/27 22:54:13;;;;;;;;;;;6.30;99.90;;;;;;8261540;28;19937;-66
2021/04/27 22:58:14;;;;;;;;;;;6.20;99.90;;;;;;8244807;28;19913;-67
2021/04/27 23:02:14;;;;;;;;;;;6.20;99.90;;;;;;8261238;28;19905;-67
2021/04/27 23:06:15;;;;;;;;;;;6.40;99.90;;;;;;8261547;28;19909;-66
2021/04/27 23:10:15;;;;;;;;;;;6.20;99.90;;;;;;8261202;28;19960;-66
2021/04/27 23:14:16;;;;;;;;;;;6.20;99.90;;;;;;8260603;28;20558;-66
2021/04/27 23:18:16;;;;;;;;;;;6.20;99.90;;;;;;8261519;28;20335;-67
2021/04/27 23:22:17;;;;;;;;;;;5.70;99.90;;;;;;8261093;28;20517;-66
2021/04/27 23:26:17;;;;;;;;;;;5.80;99.90;;;;;;8244590;28;19917;-66
2021/04/27 23:30:18;;;;;;;;;;;5.60;99.90;;;;;;8261237;28;19906;-66